sensor_id;sensor_type;location;lat;lon;timestamp;P1;durP1;ratioP1;P2;durP2;ratioP2
13461;SDS011;6803;45.264;5.468;2023-02-13T00:01:49;28.00;;;15.30;;
13461;SDS011;6803;45.264;5.468;2023-02-13T00:04:22;26.00;;;14.03;;
13461;SDS011;6803;45.264;5.468;2023-02-13T00:06:53;23.67;;;13.93;;
13461;SDS011;6803;45.264;5.468;2023-02-13T00:09:24;32.17;;;15.53;;
13461;SDS011;6803;45.264;5.468;2023-02-13T00:11:55;37.20;;;15.00;;
13461;SDS011;6803;45.264;5.468;2023-02-13T00:14:26;29.63;;;13.07;;
13461;SDS011;6803;45.264;5.468;2023-02-13T00:16:57;24.03;;;13.00;;
13461;SDS011;6803;45.264;5.468;2023-02-13T00:19:28;23.60;;;13.90;;
13461;SDS011;6803;45.264;5.468;2023-02-13T00:21:59;26.67;;;13.83;;
13461;SDS011;6803;45.264;5.468;2023-02-13T00:24:30;23.80;;;14.13;;
13461;SDS011;6803;45.264;5.468;2023-02-13T00:27:01;23.17;;;12.93;;
13461;SDS011;6803;45.264;5.468;2023-02-13T00:29:32;25.13;;;13.10;;
13461;SDS011;6803;45.264;5.468;2023-02-13T00:32:03;24.97;;;13.23;;
13461;SDS011;6803;45.264;5.468;2023-02-13T00:34:35;24.40;;;12.97;;
13461;SDS011;6803;45.264;5.468;2023-02-13T00:37:06;26.27;;;13.60;;
13461;SDS011;6803;45.264;5.468;2023-02-13T00:39:37;25.73;;;14.13;;
13461;SDS011;6803;45.264;5.468;2023-02-13T00:42:08;24.00;;;13.20;;
13461;SDS011;6803;45.264;5.468;2023-02-13T00:44:39;26.13;;;14.40;;
13461;SDS011;6803;45.264;5.468;2023-02-13T00:47:10;24.60;;;12.60;;
13461;SDS011;6803;45.264;5.468;2023-02-13T00:49:41;22.40;;;12.43;;
13461;SDS011;6803;45.264;5.468;2023-02-13T00:52:12;32.13;;;13.53;;
13461;SDS011;6803;45.264;5.468;2023-02-13T00:54:44;25.23;;;14.20;;
13461;SDS011;6803;45.264;5.468;2023-02-13T00:57:15;23.60;;;13.77;;
13461;SDS011;6803;45.264;5.468;2023-02-13T00:59:46;22.07;;;13.67;;
13461;SDS011;6803;45.264;5.468;2023-02-13T01:02:18;21.83;;;12.60;;
13461;SDS011;6803;45.264;5.468;2023-02-13T01:04:49;22.03;;;13.27;;
13461;SDS011;6803;45.264;5.468;2023-02-13T01:07:20;23.23;;;12.50;;
13461;SDS011;6803;45.264;5.468;2023-02-13T01:09:52;23.23;;;13.37;;
13461;SDS011;6803;45.264;5.468;2023-02-13T01:12:22;23.83;;;13.53;;
13461;SDS011;6803;45.264;5.468;2023-02-13T01:14:53;24.33;;;13.67;;
13461;SDS011;6803;45.264;5.468;2023-02-13T01:17:24;25.57;;;14.17;;
13461;SDS011;6803;45.264;5.468;2023-02-13T01:19:55;28.23;;;15.33;;
13461;SDS011;6803;45.264;5.468;2023-02-13T01:22:26;30.30;;;17.57;;
13461;SDS011;6803;45.264;5.468;2023-02-13T01:24:57;25.67;;;14.53;;
13461;SDS011;6803;45.264;5.468;2023-02-13T01:27:28;25.70;;;13.63;;
13461;SDS011;6803;45.264;5.468;2023-02-13T01:30:00;19.73;;;12.43;;
13461;SDS011;6803;45.264;5.468;2023-02-13T01:32:31;24.10;;;12.63;;
13461;SDS011;6803;45.264;5.468;2023-02-13T01:35:02;21.57;;;12.87;;
13461;SDS011;6803;45.264;5.468;2023-02-13T01:37:33;26.73;;;12.50;;
13461;SDS011;6803;45.264;5.468;2023-02-13T01:40:09;20.90;;;13.27;;
13461;SDS011;6803;45.264;5.468;2023-02-13T01:42:41;24.77;;;13.80;;
13461;SDS011;6803;45.264;5.468;2023-02-13T01:45:19;23.87;;;12.73;;
13461;SDS011;6803;45.264;5.468;2023-02-13T01:47:55;21.30;;;12.23;;
13461;SDS011;6803;45.264;5.468;2023-02-13T01:50:32;20.93;;;12.53;;
13461;SDS011;6803;45.264;5.468;2023-02-13T01:53:03;20.87;;;12.83;;
13461;SDS011;6803;45.264;5.468;2023-02-13T01:55:37;22.83;;;12.40;;
13461;SDS011;6803;45.264;5.468;2023-02-13T01:58:11;23.80;;;11.83;;
13461;SDS011;6803;45.264;5.468;2023-02-13T02:03:36;19.63;;;11.33;;
13461;SDS011;6803;45.264;5.468;2023-02-13T02:06:11;23.23;;;12.47;;
13461;SDS011;6803;45.264;5.468;2023-02-13T02:08:44;22.90;;;13.77;;
13461;SDS011;6803;45.264;5.468;2023-02-13T02:11:19;23.13;;;13.27;;
13461;SDS011;6803;45.264;5.468;2023-02-13T02:13:53;21.03;;;12.53;;
13461;SDS011;6803;45.264;5.468;2023-02-13T02:16:26;21.53;;;12.47;;
13461;SDS011;6803;45.264;5.468;2023-02-13T02:18:57;25.00;;;13.00;;
13461;SDS011;6803;45.264;5.468;2023-02-13T02:27:50;25.93;;;13.13;;
13461;SDS011;6803;45.264;5.468;2023-02-13T02:33:49;22.47;;;12.57;;
13461;SDS011;6803;45.264;5.468;2023-02-13T02:36:29;23.43;;;13.17;;
13461;SDS011;6803;45.264;5.468;2023-02-13T02:39:06;26.20;;;13.23;;
13461;SDS011;6803;45.264;5.468;2023-02-13T02:41:43;25.97;;;13.57;;
13461;SDS011;6803;45.264;5.468;2023-02-13T02:44:23;23.97;;;13.53;;
13461;SDS011;6803;45.264;5.468;2023-02-13T02:47:07;25.67;;;13.90;;
13461;SDS011;6803;45.264;5.468;2023-02-13T02:50:01;21.47;;;13.33;;
13461;SDS011;6803;45.264;5.468;2023-02-13T02:52:39;20.37;;;12.40;;
13461;SDS011;6803;45.264;5.468;2023-02-13T02:55:17;21.57;;;12.57;;
13461;SDS011;6803;45.264;5.468;2023-02-13T02:57:54;23.53;;;13.70;;
13461;SDS011;6803;45.264;5.468;2023-02-13T03:00:43;23.57;;;13.57;;
13461;SDS011;6803;45.264;5.468;2023-02-13T03:03:34;23.97;;;12.30;;
13461;SDS011;6803;45.264;5.468;2023-02-13T03:06:25;21.67;;;13.10;;
13461;SDS011;6803;45.264;5.468;2023-02-13T03:08:59;26.13;;;12.70;;
13461;SDS011;6803;45.264;5.468;2023-02-13T03:11:50;21.33;;;12.37;;
13461;SDS011;6803;45.264;5.468;2023-02-13T03:14:40;24.23;;;14.70;;
13461;SDS011;6803;45.264;5.468;2023-02-13T03:17:13;23.40;;;13.50;;
13461;SDS011;6803;45.264;5.468;2023-02-13T03:20:13;24.93;;;14.17;;
13461;SDS011;6803;45.264;5.468;2023-02-13T03:23:11;22.57;;;12.33;;
13461;SDS011;6803;45.264;5.468;2023-02-13T03:25:50;21.90;;;12.67;;
13461;SDS011;6803;45.264;5.468;2023-02-13T03:28:39;21.77;;;12.57;;
13461;SDS011;6803;45.264;5.468;2023-02-13T03:31:31;23.20;;;13.17;;
13461;SDS011;6803;45.264;5.468;2023-02-13T03:34:05;21.50;;;13.13;;
13461;SDS011;6803;45.264;5.468;2023-02-13T03:36:42;23.23;;;12.53;;
13461;SDS011;6803;45.264;5.468;2023-02-13T03:39:41;20.37;;;11.77;;
13461;SDS011;6803;45.264;5.468;2023-02-13T03:42:17;22.17;;;12.43;;
13461;SDS011;6803;45.264;5.468;2023-02-13T03:44:50;25.00;;;11.93;;
13461;SDS011;6803;45.264;5.468;2023-02-13T03:47:42;23.27;;;12.23;;
13461;SDS011;6803;45.264;5.468;2023-02-13T03:50:16;21.07;;;11.60;;
13461;SDS011;6803;45.264;5.468;2023-02-13T03:52:49;23.23;;;12.80;;
13461;SDS011;6803;45.264;5.468;2023-02-13T03:55:22;20.47;;;11.93;;
13461;SDS011;6803;45.264;5.468;2023-02-13T03:58:13;21.30;;;12.97;;
13461;SDS011;6803;45.264;5.468;2023-02-13T04:01:05;21.67;;;12.53;;
13461;SDS011;6803;45.264;5.468;2023-02-13T04:03:39;25.50;;;13.43;;
13461;SDS011;6803;45.264;5.468;2023-02-13T04:06:14;21.80;;;12.73;;
13461;SDS011;6803;45.264;5.468;2023-02-13T04:08:47;24.33;;;13.40;;
13461;SDS011;6803;45.264;5.468;2023-02-13T04:11:20;19.37;;;11.30;;
13461;SDS011;6803;45.264;5.468;2023-02-13T04:13:53;21.73;;;12.17;;
13461;SDS011;6803;45.264;5.468;2023-02-13T04:16:28;22.73;;;12.87;;
13461;SDS011;6803;45.264;5.468;2023-02-13T04:19:01;23.43;;;12.23;;
13461;SDS011;6803;45.264;5.468;2023-02-13T04:21:33;22.53;;;12.23;;
13461;SDS011;6803;45.264;5.468;2023-02-13T04:24:05;18.07;;;11.70;;
13461;SDS011;6803;45.264;5.468;2023-02-13T04:26:37;25.03;;;13.17;;
13461;SDS011;6803;45.264;5.468;2023-02-13T04:29:10;22.80;;;12.10;;
13461;SDS011;6803;45.264;5.468;2023-02-13T04:31:41;21.17;;;11.80;;
13461;SDS011;6803;45.264;5.468;2023-02-13T04:34:13;22.07;;;12.47;;
13461;SDS011;6803;45.264;5.468;2023-02-13T04:36:44;19.53;;;11.30;;
13461;SDS011;6803;45.264;5.468;2023-02-13T04:39:15;27.23;;;17.87;;
13461;SDS011;6803;45.264;5.468;2023-02-13T04:41:46;26.60;;;16.63;;
13461;SDS011;6803;45.264;5.468;2023-02-13T04:44:17;23.37;;;14.80;;
13461;SDS011;6803;45.264;5.468;2023-02-13T04:46:48;26.50;;;14.20;;
13461;SDS011;6803;45.264;5.468;2023-02-13T04:49:19;22.17;;;12.90;;
13461;SDS011;6803;45.264;5.468;2023-02-13T04:51:50;23.30;;;13.03;;
13461;SDS011;6803;45.264;5.468;2023-02-13T04:54:21;21.80;;;12.80;;
13461;SDS011;6803;45.264;5.468;2023-02-13T04:56:52;24.13;;;14.10;;
13461;SDS011;6803;45.264;5.468;2023-02-13T04:59:23;19.97;;;12.07;;
13461;SDS011;6803;45.264;5.468;2023-02-13T05:01:54;23.03;;;13.00;;
13461;SDS011;6803;45.264;5.468;2023-02-13T05:04:26;20.83;;;13.17;;
13461;SDS011;6803;45.264;5.468;2023-02-13T05:06:57;25.23;;;14.13;;
13461;SDS011;6803;45.264;5.468;2023-02-13T05:09:28;19.92;;;13.35;;
13461;SDS011;6803;45.264;5.468;2023-02-13T05:11:59;25.80;;;15.73;;
13461;SDS011;6803;45.264;5.468;2023-02-13T05:17:07;26.33;;;13.83;;
13461;SDS011;6803;45.264;5.468;2023-02-13T05:19:38;23.97;;;14.37;;
13461;SDS011;6803;45.264;5.468;2023-02-13T05:22:10;22.73;;;13.23;;
13461;SDS011;6803;45.264;5.468;2023-02-13T05:24:58;16.67;;;10.90;;
13461;SDS011;6803;45.264;5.468;2023-02-13T05:27:37;21.67;;;11.33;;
13461;SDS011;6803;45.264;5.468;2023-02-13T05:30:09;23.57;;;12.33;;
13461;SDS011;6803;45.264;5.468;2023-02-13T05:32:42;23.00;;;13.37;;
13461;SDS011;6803;45.264;5.468;2023-02-13T05:35:13;22.60;;;12.50;;
13461;SDS011;6803;45.264;5.468;2023-02-13T05:37:44;17.33;;;11.33;;
13461;SDS011;6803;45.264;5.468;2023-02-13T05:40:15;23.43;;;12.50;;
13461;SDS011;6803;45.264;5.468;2023-02-13T05:42:48;19.30;;;10.10;;
13461;SDS011;6803;45.264;5.468;2023-02-13T05:45:20;21.20;;;11.07;;
13461;SDS011;6803;45.264;5.468;2023-02-13T05:47:52;17.47;;;10.67;;
13461;SDS011;6803;45.264;5.468;2023-02-13T05:50:23;18.97;;;11.70;;
13461;SDS011;6803;45.264;5.468;2023-02-13T05:52:53;21.73;;;12.47;;
13461;SDS011;6803;45.264;5.468;2023-02-13T05:55:25;21.33;;;11.40;;
13461;SDS011;6803;45.264;5.468;2023-02-13T05:57:56;20.23;;;10.63;;
13461;SDS011;6803;45.264;5.468;2023-02-13T06:00:27;18.40;;;12.00;;
13461;SDS011;6803;45.264;5.468;2023-02-13T06:02:58;19.03;;;11.20;;
13461;SDS011;6803;45.264;5.468;2023-02-13T06:05:29;17.43;;;10.20;;
13461;SDS011;6803;45.264;5.468;2023-02-13T06:08:00;18.97;;;10.17;;
13461;SDS011;6803;45.264;5.468;2023-02-13T06:10:31;20.20;;;11.57;;
13461;SDS011;6803;45.264;5.468;2023-02-13T06:13:03;19.93;;;11.20;;
13461;SDS011;6803;45.264;5.468;2023-02-13T06:15:34;18.07;;;10.60;;
13461;SDS011;6803;45.264;5.468;2023-02-13T06:20:55;16.33;;;9.77;;
13461;SDS011;6803;45.264;5.468;2023-02-13T06:23:26;14.23;;;8.93;;
13461;SDS011;6803;45.264;5.468;2023-02-13T06:26:01;28.27;;;10.63;;
13461;SDS011;6803;45.264;5.468;2023-02-13T06:28:33;20.23;;;10.57;;
13461;SDS011;6803;45.264;5.468;2023-02-13T06:31:05;18.07;;;10.77;;
13461;SDS011;6803;45.264;5.468;2023-02-13T06:33:36;20.47;;;10.30;;
13461;SDS011;6803;45.264;5.468;2023-02-13T06:36:07;38.27;;;21.00;;
13461;SDS011;6803;45.264;5.468;2023-02-13T06:38:38;58.70;;;29.70;;
13461;SDS011;6803;45.264;5.468;2023-02-13T06:41:10;48.37;;;25.03;;
13461;SDS011;6803;45.264;5.468;2023-02-13T06:43:41;59.87;;;30.13;;
13461;SDS011;6803;45.264;5.468;2023-02-13T06:46:12;60.73;;;29.60;;
13461;SDS011;6803;45.264;5.468;2023-02-13T06:48:43;58.30;;;29.33;;
13461;SDS011;6803;45.264;5.468;2023-02-13T06:51:15;58.23;;;27.40;;
13461;SDS011;6803;45.264;5.468;2023-02-13T06:53:46;52.83;;;26.90;;
13461;SDS011;6803;45.264;5.468;2023-02-13T06:56:17;54.47;;;26.40;;
13461;SDS011;6803;45.264;5.468;2023-02-13T06:58:48;48.73;;;24.93;;
13461;SDS011;6803;45.264;5.468;2023-02-13T07:01:19;55.73;;;26.77;;
13461;SDS011;6803;45.264;5.468;2023-02-13T07:03:50;43.93;;;23.17;;
13461;SDS011;6803;45.264;5.468;2023-02-13T07:06:22;47.50;;;25.20;;
13461;SDS011;6803;45.264;5.468;2023-02-13T07:08:53;44.80;;;24.87;;
13461;SDS011;6803;45.264;5.468;2023-02-13T07:11:37;45.80;;;24.40;;
13461;SDS011;6803;45.264;5.468;2023-02-13T07:14:09;42.77;;;23.90;;
13461;SDS011;6803;45.264;5.468;2023-02-13T07:16:41;48.67;;;27.80;;
13461;SDS011;6803;45.264;5.468;2023-02-13T07:19:12;51.27;;;29.27;;
13461;SDS011;6803;45.264;5.468;2023-02-13T07:21:44;54.30;;;26.97;;
13461;SDS011;6803;45.264;5.468;2023-02-13T07:24:15;36.53;;;22.00;;
13461;SDS011;6803;45.264;5.468;2023-02-13T07:26:46;33.10;;;19.67;;
13461;SDS011;6803;45.264;5.468;2023-02-13T07:29:17;39.00;;;18.67;;
13461;SDS011;6803;45.264;5.468;2023-02-13T07:31:48;43.17;;;23.07;;
13461;SDS011;6803;45.264;5.468;2023-02-13T07:34:20;44.17;;;25.53;;
13461;SDS011;6803;45.264;5.468;2023-02-13T07:36:51;42.07;;;25.50;;
13461;SDS011;6803;45.264;5.468;2023-02-13T07:39:22;41.10;;;20.50;;
13461;SDS011;6803;45.264;5.468;2023-02-13T07:41:54;33.03;;;18.60;;
13461;SDS011;6803;45.264;5.468;2023-02-13T07:44:25;29.67;;;16.73;;
13461;SDS011;6803;45.264;5.468;2023-02-13T07:46:56;41.13;;;21.97;;
13461;SDS011;6803;45.264;5.468;2023-02-13T07:49:29;44.10;;;22.87;;
13461;SDS011;6803;45.264;5.468;2023-02-13T07:52:00;45.83;;;23.80;;
13461;SDS011;6803;45.264;5.468;2023-02-13T07:54:31;45.97;;;25.10;;
13461;SDS011;6803;45.264;5.468;2023-02-13T07:57:03;38.87;;;22.27;;
13461;SDS011;6803;45.264;5.468;2023-02-13T07:59:34;38.97;;;23.90;;
13461;SDS011;6803;45.264;5.468;2023-02-13T08:02:07;39.93;;;22.77;;
13461;SDS011;6803;45.264;5.468;2023-02-13T08:04:41;38.57;;;22.20;;
13461;SDS011;6803;45.264;5.468;2023-02-13T08:07:14;43.97;;;23.40;;
13461;SDS011;6803;45.264;5.468;2023-02-13T08:09:45;35.93;;;21.90;;
13461;SDS011;6803;45.264;5.468;2023-02-13T08:12:34;37.67;;;22.43;;
13461;SDS011;6803;45.264;5.468;2023-02-13T08:15:08;36.30;;;21.43;;
13461;SDS011;6803;45.264;5.468;2023-02-13T08:17:46;37.10;;;20.87;;
13461;SDS011;6803;45.264;5.468;2023-02-13T08:20:17;53.37;;;27.90;;
13461;SDS011;6803;45.264;5.468;2023-02-13T08:22:49;57.80;;;31.10;;
13461;SDS011;6803;45.264;5.468;2023-02-13T08:25:20;57.17;;;31.97;;
13461;SDS011;6803;45.264;5.468;2023-02-13T08:27:51;65.50;;;35.00;;
13461;SDS011;6803;45.264;5.468;2023-02-13T08:30:22;66.87;;;37.47;;
13461;SDS011;6803;45.264;5.468;2023-02-13T08:32:53;67.60;;;37.10;;
13461;SDS011;6803;45.264;5.468;2023-02-13T08:35:25;68.97;;;39.00;;
13461;SDS011;6803;45.264;5.468;2023-02-13T08:38:01;61.57;;;33.93;;
13461;SDS011;6803;45.264;5.468;2023-02-13T08:40:33;47.50;;;28.63;;
13461;SDS011;6803;45.264;5.468;2023-02-13T08:43:04;68.87;;;33.63;;
13461;SDS011;6803;45.264;5.468;2023-02-13T08:45:36;59.43;;;32.70;;
13461;SDS011;6803;45.264;5.468;2023-02-13T08:48:07;50.13;;;30.03;;
13461;SDS011;6803;45.264;5.468;2023-02-13T08:50:37;48.57;;;26.83;;
13461;SDS011;6803;45.264;5.468;2023-02-13T08:53:08;47.77;;;26.10;;
13461;SDS011;6803;45.264;5.468;2023-02-13T08:55:40;46.80;;;26.67;;
13461;SDS011;6803;45.264;5.468;2023-02-13T08:58:10;45.23;;;26.23;;
13461;SDS011;6803;45.264;5.468;2023-02-13T09:00:42;45.33;;;24.53;;
13461;SDS011;6803;45.264;5.468;2023-02-13T09:03:13;40.37;;;23.10;;
13461;SDS011;6803;45.264;5.468;2023-02-13T09:05:44;36.03;;;21.30;;
13461;SDS011;6803;45.264;5.468;2023-02-13T09:08:15;44.87;;;21.33;;
13461;SDS011;6803;45.264;5.468;2023-02-13T09:10:46;39.20;;;21.27;;
13461;SDS011;6803;45.264;5.468;2023-02-13T09:13:20;49.20;;;24.63;;
13461;SDS011;6803;45.264;5.468;2023-02-13T09:15:53;43.07;;;23.53;;
13461;SDS011;6803;45.264;5.468;2023-02-13T09:21:17;41.40;;;20.60;;
13461;SDS011;6803;45.264;5.468;2023-02-13T09:23:49;34.10;;;18.43;;
13461;SDS011;6803;45.264;5.468;2023-02-13T09:26:22;30.70;;;18.53;;
13461;SDS011;6803;45.264;5.468;2023-02-13T09:28:53;30.97;;;18.47;;
13461;SDS011;6803;45.264;5.468;2023-02-13T09:31:24;35.20;;;19.30;;
13461;SDS011;6803;45.264;5.468;2023-02-13T09:33:56;37.53;;;20.03;;
13461;SDS011;6803;45.264;5.468;2023-02-13T09:36:27;32.47;;;19.37;;
13461;SDS011;6803;45.264;5.468;2023-02-13T09:39:00;31.70;;;18.73;;
13461;SDS011;6803;45.264;5.468;2023-02-13T09:41:31;33.67;;;19.63;;
13461;SDS011;6803;45.264;5.468;2023-02-13T09:44:05;26.63;;;16.60;;
13461;SDS011;6803;45.264;5.468;2023-02-13T09:46:40;31.50;;;17.77;;
13461;SDS011;6803;45.264;5.468;2023-02-13T09:49:14;30.97;;;17.77;;
13461;SDS011;6803;45.264;5.468;2023-02-13T09:51:47;35.53;;;18.93;;
13461;SDS011;6803;45.264;5.468;2023-02-13T09:54:21;34.03;;;18.53;;
13461;SDS011;6803;45.264;5.468;2023-02-13T09:56:54;27.30;;;16.87;;
13461;SDS011;6803;45.264;5.468;2023-02-13T09:59:34;28.90;;;16.93;;
13461;SDS011;6803;45.264;5.468;2023-02-13T10:02:30;28.77;;;16.40;;
13461;SDS011;6803;45.264;5.468;2023-02-13T10:05:22;24.97;;;15.83;;
13461;SDS011;6803;45.264;5.468;2023-02-13T10:08:05;32.67;;;16.60;;
13461;SDS011;6803;45.264;5.468;2023-02-13T10:10:42;33.57;;;16.73;;
13461;SDS011;6803;45.264;5.468;2023-02-13T10:13:18;26.63;;;16.23;;
13461;SDS011;6803;45.264;5.468;2023-02-13T10:15:56;26.33;;;17.07;;
13461;SDS011;6803;45.264;5.468;2023-02-13T10:18:33;27.10;;;17.10;;
13461;SDS011;6803;45.264;5.468;2023-02-13T10:21:10;28.27;;;16.83;;
13461;SDS011;6803;45.264;5.468;2023-02-13T10:23:44;28.97;;;18.13;;
13461;SDS011;6803;45.264;5.468;2023-02-13T10:26:19;29.00;;;17.37;;
13461;SDS011;6803;45.264;5.468;2023-02-13T10:28:54;28.40;;;17.00;;
13461;SDS011;6803;45.264;5.468;2023-02-13T10:31:45;30.77;;;17.10;;
13461;SDS011;6803;45.264;5.468;2023-02-13T10:34:20;25.00;;;16.80;;
13461;SDS011;6803;45.264;5.468;2023-02-13T10:36:53;31.33;;;17.37;;
13461;SDS011;6803;45.264;5.468;2023-02-13T10:39:25;28.63;;;17.07;;
13461;SDS011;6803;45.264;5.468;2023-02-13T10:41:59;28.60;;;18.20;;
13461;SDS011;6803;45.264;5.468;2023-02-13T10:44:35;43.70;;;19.07;;
13461;SDS011;6803;45.264;5.468;2023-02-13T10:47:13;40.30;;;17.80;;
13461;SDS011;6803;45.264;5.468;2023-02-13T10:49:58;38.23;;;18.47;;
13461;SDS011;6803;45.264;5.468;2023-02-13T10:52:38;40.17;;;18.37;;
13461;SDS011;6803;45.264;5.468;2023-02-13T10:55:20;35.60;;;17.87;;
13461;SDS011;6803;45.264;5.468;2023-02-13T10:58:03;37.00;;;17.37;;
13461;SDS011;6803;45.264;5.468;2023-02-13T11:00:38;40.00;;;17.60;;
13461;SDS011;6803;45.264;5.468;2023-02-13T11:03:15;41.63;;;17.73;;
13461;SDS011;6803;45.264;5.468;2023-02-13T11:05:49;40.13;;;17.30;;
13461;SDS011;6803;45.264;5.468;2023-02-13T11:08:22;40.07;;;17.83;;
13461;SDS011;6803;45.264;5.468;2023-02-13T11:10:54;29.10;;;17.13;;
13461;SDS011;6803;45.264;5.468;2023-02-13T11:13:25;30.37;;;16.80;;
13461;SDS011;6803;45.264;5.468;2023-02-13T11:16:17;29.23;;;16.73;;
13461;SDS011;6803;45.264;5.468;2023-02-13T11:18:48;39.30;;;16.80;;
13461;SDS011;6803;45.264;5.468;2023-02-13T11:21:20;33.63;;;16.40;;
13461;SDS011;6803;45.264;5.468;2023-02-13T11:23:53;31.80;;;17.17;;
13461;SDS011;6803;45.264;5.468;2023-02-13T11:26:30;34.87;;;17.27;;
13461;SDS011;6803;45.264;5.468;2023-02-13T11:29:13;25.60;;;15.93;;
13461;SDS011;6803;45.264;5.468;2023-02-13T11:31:45;29.17;;;17.80;;
13461;SDS011;6803;45.264;5.468;2023-02-13T11:34:22;33.07;;;17.20;;
13461;SDS011;6803;45.264;5.468;2023-02-13T11:37:08;25.17;;;16.93;;
13461;SDS011;6803;45.264;5.468;2023-02-13T11:39:45;28.23;;;16.67;;
13461;SDS011;6803;45.264;5.468;2023-02-13T11:42:20;25.03;;;17.33;;
13461;SDS011;6803;45.264;5.468;2023-02-13T11:44:57;29.10;;;17.57;;
13461;SDS011;6803;45.264;5.468;2023-02-13T11:47:34;29.90;;;16.80;;
13461;SDS011;6803;45.264;5.468;2023-02-13T11:50:19;28.53;;;17.87;;
13461;SDS011;6803;45.264;5.468;2023-02-13T11:52:54;24.37;;;16.77;;
13461;SDS011;6803;45.264;5.468;2023-02-13T11:55:28;23.90;;;15.87;;
13461;SDS011;6803;45.264;5.468;2023-02-13T11:58:01;27.97;;;17.83;;
13461;SDS011;6803;45.264;5.468;2023-02-13T12:00:34;24.27;;;16.33;;
13461;SDS011;6803;45.264;5.468;2023-02-13T12:03:24;27.93;;;17.97;;
13461;SDS011;6803;45.264;5.468;2023-02-13T12:06:01;26.97;;;16.87;;
13461;SDS011;6803;45.264;5.468;2023-02-13T12:08:35;29.37;;;16.97;;
13461;SDS011;6803;45.264;5.468;2023-02-13T12:11:09;29.83;;;17.77;;
13461;SDS011;6803;45.264;5.468;2023-02-13T12:13:44;28.80;;;17.27;;
13461;SDS011;6803;45.264;5.468;2023-02-13T12:16:29;30.47;;;17.07;;
13461;SDS011;6803;45.264;5.468;2023-02-13T12:18:52;37.90;;;17.33;;
13461;SDS011;6803;45.264;5.468;2023-02-13T12:21:30;31.47;;;18.23;;
13461;SDS011;6803;45.264;5.468;2023-02-13T12:24:10;29.30;;;17.57;;
13461;SDS011;6803;45.264;5.468;2023-02-13T12:26:43;27.63;;;17.73;;
13461;SDS011;6803;45.264;5.468;2023-02-13T12:29:23;28.90;;;17.47;;
13461;SDS011;6803;45.264;5.468;2023-02-13T12:32:05;27.43;;;17.53;;
13461;SDS011;6803;45.264;5.468;2023-02-13T12:34:53;26.00;;;16.07;;
13461;SDS011;6803;45.264;5.468;2023-02-13T12:37:43;26.80;;;16.70;;
13461;SDS011;6803;45.264;5.468;2023-02-13T12:40:29;29.07;;;17.00;;
13461;SDS011;6803;45.264;5.468;2023-02-13T12:43:13;24.10;;;15.50;;
13461;SDS011;6803;45.264;5.468;2023-02-13T12:45:53;24.80;;;15.47;;
13461;SDS011;6803;45.264;5.468;2023-02-13T12:48:29;21.10;;;14.60;;
13461;SDS011;6803;45.264;5.468;2023-02-13T12:51:14;29.83;;;15.03;;
13461;SDS011;6803;45.264;5.468;2023-02-13T12:54:06;24.97;;;14.70;;
13461;SDS011;6803;45.264;5.468;2023-02-13T12:56:55;29.13;;;15.40;;
13461;SDS011;6803;45.264;5.468;2023-02-13T12:59:32;23.90;;;15.53;;
13461;SDS011;6803;45.264;5.468;2023-02-13T13:05:26;22.57;;;14.27;;
13461;SDS011;6803;45.264;5.468;2023-02-13T13:08:09;22.80;;;15.00;;
13461;SDS011;6803;45.264;5.468;2023-02-13T13:10:47;24.47;;;13.03;;
13461;SDS011;6803;45.264;5.468;2023-02-13T13:13:33;22.70;;;13.70;;
13461;SDS011;6803;45.264;5.468;2023-02-13T13:16:08;22.23;;;13.73;;
13461;SDS011;6803;45.264;5.468;2023-02-13T13:18:57;23.10;;;12.40;;
13461;SDS011;6803;45.264;5.468;2023-02-13T13:21:34;21.40;;;12.90;;
13461;SDS011;6803;45.264;5.468;2023-02-13T13:24:12;20.53;;;12.67;;
13461;SDS011;6803;45.264;5.468;2023-02-13T13:26:46;22.33;;;12.47;;
13461;SDS011;6803;45.264;5.468;2023-02-13T13:29:21;24.33;;;13.43;;
13461;SDS011;6803;45.264;5.468;2023-02-13T13:31:55;22.73;;;12.80;;
13461;SDS011;6803;45.264;5.468;2023-02-13T13:34:29;19.73;;;12.73;;
13461;SDS011;6803;45.264;5.468;2023-02-13T13:37:03;21.53;;;12.13;;
13461;SDS011;6803;45.264;5.468;2023-02-13T13:39:40;26.43;;;12.43;;
13461;SDS011;6803;45.264;5.468;2023-02-13T13:42:15;21.87;;;12.17;;
13461;SDS011;6803;45.264;5.468;2023-02-13T13:45:00;19.40;;;11.53;;
13461;SDS011;6803;45.264;5.468;2023-02-13T13:47:43;18.77;;;11.30;;
13461;SDS011;6803;45.264;5.468;2023-02-13T13:50:19;18.13;;;10.93;;
13461;SDS011;6803;45.264;5.468;2023-02-13T13:53:11;18.93;;;11.37;;
13461;SDS011;6803;45.264;5.468;2023-02-13T13:58:39;18.27;;;11.73;;
13461;SDS011;6803;45.264;5.468;2023-02-13T14:01:21;17.70;;;11.93;;
13461;SDS011;6803;45.264;5.468;2023-02-13T14:03:56;21.63;;;11.70;;
13461;SDS011;6803;45.264;5.468;2023-02-13T14:07:12;16.83;;;9.80;;
13461;SDS011;6803;45.264;5.468;2023-02-13T14:09:38;16.13;;;10.13;;
13461;SDS011;6803;45.264;5.468;2023-02-13T14:12:36;17.43;;;9.77;;
13461;SDS011;6803;45.264;5.468;2023-02-13T14:18:20;17.10;;;10.97;;
13461;SDS011;6803;45.264;5.468;2023-02-13T14:20:54;16.87;;;10.20;;
13461;SDS011;6803;45.264;5.468;2023-02-13T14:23:34;18.17;;;10.00;;
13461;SDS011;6803;45.264;5.468;2023-02-13T14:32:13;19.20;;;10.87;;
13461;SDS011;6803;45.264;5.468;2023-02-13T14:34:51;16.73;;;9.80;;
13461;SDS011;6803;45.264;5.468;2023-02-13T14:37:27;15.37;;;9.30;;
13461;SDS011;6803;45.264;5.468;2023-02-13T14:43:20;20.63;;;9.97;;
13461;SDS011;6803;45.264;5.468;2023-02-13T14:49:06;15.83;;;9.00;;
13461;SDS011;6803;45.264;5.468;2023-02-13T14:51:45;16.67;;;9.23;;
13461;SDS011;6803;45.264;5.468;2023-02-13T14:54:20;14.93;;;8.67;;
13461;SDS011;6803;45.264;5.468;2023-02-13T14:56:58;16.67;;;8.70;;
13461;SDS011;6803;45.264;5.468;2023-02-13T14:59:32;16.95;;;9.50;;
13461;SDS011;6803;45.264;5.468;2023-02-13T15:02:08;17.10;;;8.97;;
13461;SDS011;6803;45.264;5.468;2023-02-13T15:04:44;15.80;;;8.67;;
13461;SDS011;6803;45.264;5.468;2023-02-13T15:07:18;16.37;;;8.57;;
13461;SDS011;6803;45.264;5.468;2023-02-13T15:09:51;17.20;;;9.27;;
13461;SDS011;6803;45.264;5.468;2023-02-13T15:12:26;21.87;;;10.90;;
13461;SDS011;6803;45.264;5.468;2023-02-13T15:14:59;19.47;;;9.40;;
13461;SDS011;6803;45.264;5.468;2023-02-13T15:17:32;18.63;;;9.50;;
13461;SDS011;6803;45.264;5.468;2023-02-13T15:20:22;17.03;;;9.00;;
13461;SDS011;6803;45.264;5.468;2023-02-13T15:22:48;21.27;;;9.27;;
13461;SDS011;6803;45.264;5.468;2023-02-13T15:25:23;16.03;;;9.53;;
13461;SDS011;6803;45.264;5.468;2023-02-13T15:28:00;17.27;;;9.83;;
13461;SDS011;6803;45.264;5.468;2023-02-13T15:30:33;20.03;;;9.20;;
13461;SDS011;6803;45.264;5.468;2023-02-13T15:33:14;21.77;;;10.90;;
13461;SDS011;6803;45.264;5.468;2023-02-13T15:35:46;16.47;;;9.67;;
13461;SDS011;6803;45.264;5.468;2023-02-13T15:38:24;19.73;;;10.53;;
13461;SDS011;6803;45.264;5.468;2023-02-13T15:40:58;16.57;;;9.97;;
13461;SDS011;6803;45.264;5.468;2023-02-13T15:43:33;19.87;;;10.40;;
13461;SDS011;6803;45.264;5.468;2023-02-13T15:46:18;17.60;;;10.63;;
13461;SDS011;6803;45.264;5.468;2023-02-13T15:48:48;19.00;;;10.67;;
13461;SDS011;6803;45.264;5.468;2023-02-13T15:51:20;17.90;;;9.73;;
13461;SDS011;6803;45.264;5.468;2023-02-13T15:53:53;18.57;;;10.10;;
13461;SDS011;6803;45.264;5.468;2023-02-13T15:56:26;16.17;;;9.63;;
13461;SDS011;6803;45.264;5.468;2023-02-13T15:58:59;20.07;;;10.80;;
13461;SDS011;6803;45.264;5.468;2023-02-13T16:01:31;17.37;;;10.37;;
13461;SDS011;6803;45.264;5.468;2023-02-13T16:04:03;17.53;;;10.43;;
13461;SDS011;6803;45.264;5.468;2023-02-13T16:06:36;22.20;;;10.60;;